Portada
METAR-TAF:

METAR-TAF

Aeroports :

San José del Cabo, Mèxic

latitud: 23-09N, longitud: 109-42W, altitud: 109 m

Observació

L'informe es va fer fa 35 minuts, a les 21:41 UTC
Vent 15 kt del Nord
Temperatura 24°C
Humitat 13%
Pressió 1015 hPa
Visibilitat: 16.1 km
Núvols disperses a una alçada de 16000 ft
Cel ennuvolat a una alçada de 25000 ft

METAR: MMSD 262141Z 36015KT 10SM SCT160 BKN250 24/M06 A2996 RMK 8/038

Hora: 15:16 (22:16 UTC)

Pronòstic

L'informe es va fer fa 4 hores i 49 minuts, a les 17:27 UTC
Pronòstic vàlid del 26 a les 18 UTC al 27 a les 18 UTC
Vent 15 kt del Nord
Visibilitat: 10 km
Cel clar
Evolucionant progressivament
l' 27 a les 02 UTC al 27 a les 04 UTC
Vent 10 kt del Oest/Nord-Oest
A partir de les 27 a les 1600 UTC
Vent 15 kt del Nord/Nord-Oest
Visibilitat: 10 km
Cel clar

TAF: MMSD 261727Z 2618/2718 36015KT P6SM SKC BECMG 2702/2704 30010KT FM271600 33015KT P6SM SKC

Observacions i pronòstics meteorològics de més de 4000 aeroports (METAR i TAF).

Les estacions disponibles són els punts grocs i vermells al mapa.

Posi el ratolí al punt desitjat per veure el nom de l'estació.

Feu clic per veure les observacions i els pronòstics meteorològics.

Per canviar el mapa: feu clic els botons verds amb una creu de color negre per apropar; al botó verd amb un guió per allunyar la imatge; o en les fletxes verdes per a mapes adjacents.


METAR-TAF: